General Cabrera, Argentina
Current Conditions -  °F | °C
As of 10:00 AM on Friday 28 Nov 2014 (Local Time) from SAOC Reporting Station
Clear Clear  
Wind Chill: 26°   Ceiling: Unl
Heat Index: 26°   Visibility: 6mi
Dew Point:   Wind: 28mph
Humidity: 32%   Direction: 340°NNW
Pressure: 29.88"   Gusts: NA
Location:  32.8°S, 63.87°W
Report Text: SAOC 281300Z 34024KT CAVOK 26/08 Q1012
Loading
Personal Weather Stations






























Interactive Weather Map New forecast layout! Learn more

10-Day Weather Forecast

Advertisements
Track Severe Weather on mobile